createdAt,value
2019-03-17T00:01:32.113Z,99196.19
2019-03-17T00:04:35.557Z,99191.84
2019-03-17T00:07:39.103Z,99188.72
2019-03-17T00:10:43.635Z,99188.72
2019-03-17T00:13:47.163Z,99193.16
2019-03-17T00:16:50.625Z,99187.52
2019-03-17T00:19:54.221Z,99188.24
2019-03-17T00:22:58.647Z,99178.25
2019-03-17T00:26:02.140Z,99180.17
2019-03-17T00:29:07.355Z,99182.82
2019-03-17T00:32:10.783Z,99183.67
2019-03-17T00:35:15.325Z,99173.43
2019-03-17T00:38:18.863Z,99177.30
2019-03-17T00:41:23.337Z,99174.19
2019-03-17T00:44:26.841Z,99173.21
2019-03-17T00:47:30.544Z,99170.22
2019-03-17T00:50:35.080Z,99169.87
2019-03-17T00:53:38.579Z,99174.19
2019-03-17T00:56:42.167Z,99171.54
2019-03-17T00:59:45.685Z,99169.87
2019-03-17T01:02:49.183Z,99170.47
2019-03-17T01:05:52.836Z,99169.14
2019-03-17T01:08:56.300Z,99158.55
2019-03-17T01:11:59.877Z,99164.83
2019-03-17T01:15:03.381Z,99161.20
2019-03-17T01:18:06.992Z,99159.53
2019-03-17T01:21:10.495Z,99153.39
2019-03-17T01:24:15.035Z,99149.89
2019-03-17T01:27:18.498Z,99141.60
2019-03-17T01:30:23.064Z,99141.26
2019-03-17T01:33:26.544Z,99139.30
2019-03-17T01:36:30.039Z,99126.20
2019-03-17T01:39:33.536Z,99121.41
2019-03-17T01:42:37.039Z,99109.50
2019-03-17T01:45:40.567Z,99111.80
2019-03-17T01:48:44.028Z,99107.45
2019-03-17T01:51:48.599Z,99104.80
2019-03-17T01:54:53.113Z,99097.24
2019-03-17T01:57:56.620Z,99090.25
2019-03-17T02:01:00.042Z,99089.43
2019-03-17T02:04:03.611Z,99087.60
2019-03-17T02:07:07.098Z,99084.27
2019-03-17T02:10:10.617Z,99081.96
2019-03-17T02:13:14.119Z,99072.83
2019-03-17T02:16:17.603Z,99070.19
2019-03-17T02:19:23.196Z,99067.06
2019-03-17T02:22:26.751Z,99058.40
2019-03-17T02:25:31.397Z,99054.09
2019-03-17T02:28:34.887Z,99059.72
2019-03-17T02:31:38.394Z,99058.53
2019-03-17T02:34:41.913Z,99048.92
2019-03-17T02:37:45.369Z,99047.09
2019-03-17T02:40:48.944Z,99044.83
2019-03-17T02:43:52.381Z,99044.10
2019-03-17T02:46:56.018Z,99043.28
2019-03-17T02:49:59.444Z,99045.77
2019-03-17T02:53:02.899Z,99040.64
2019-03-17T02:56:06.390Z,99030.52
2019-03-17T02:59:09.965Z,99031.84
2019-03-17T03:02:14.438Z,99030.05
2019-03-17T03:05:17.928Z,99028.48
2019-03-17T03:08:21.419Z,99022.24
2019-03-17T03:11:25.971Z,99018.87
2019-03-17T03:14:29.426Z,99011.78
2019-03-17T03:17:32.906Z,99016.58
2019-03-17T03:20:36.483Z,99009.61
2019-03-17T03:23:40.975Z,99004.66
2019-03-17T03:26:44.496Z,99003.00
2019-03-17T03:29:49.045Z,99005.64
2019-03-17T03:32:54.559Z,98994.72
2019-03-17T03:36:09.994Z,98997.70
2019-03-17T03:39:04.444Z,98989.77
2019-03-17T03:42:07.920Z,98984.48
2019-03-17T03:45:11.611Z,98980.16
2019-03-17T03:48:15.138Z,98975.00
2019-03-17T03:51:18.634Z,98966.21
2019-03-17T03:54:22.127Z,98960.92
2019-03-17T03:57:26.662Z,98953.84
2019-03-17T04:00:30.124Z,98949.02
2019-03-17T04:03:33.691Z,98939.41
2019-03-17T04:06:37.132Z,98935.91
2019-03-17T04:09:40.709Z,98932.08
2019-03-17T04:12:44.179Z,98925.20
2019-03-17T04:15:47.737Z,98934.13
2019-03-17T04:18:52.286Z,98927.16
2019-03-17T04:21:55.863Z,98921.16
2019-03-17T04:24:59.294Z,98910.56
2019-03-17T04:28:02.831Z,98908.27
2019-03-17T04:31:06.424Z,98893.58
2019-03-17T04:34:11.932Z,98880.86
2019-03-17T04:37:15.460Z,98883.51
2019-03-17T04:40:18.962Z,98884.11
2019-03-17T04:43:28.383Z,98872.20
2019-03-17T04:46:31.832Z,98874.85
2019-03-17T04:49:35.302Z,98876.52
2019-03-17T04:52:38.837Z,98867.90
2019-03-17T04:55:42.384Z,98863.55
2019-03-17T04:58:45.887Z,98862.61
2019-03-17T05:01:49.429Z,98860.09
2019-03-17T05:04:53.180Z,98852.02
2019-03-17T05:07:56.787Z,98850.83
2019-03-17T05:11:01.335Z,98852.16
2019-03-17T05:14:04.873Z,98853.95
2019-03-17T05:17:08.309Z,98845.67
2019-03-17T05:20:11.835Z,98838.08
2019-03-17T05:23:15.337Z,98833.42
2019-03-17T05:26:18.780Z,98826.65
2019-03-17T05:29:22.217Z,98825.11
2019-03-17T05:32:25.826Z,98818.03
2019-03-17T05:35:29.263Z,98819.22
2019-03-17T05:38:32.849Z,98820.20
2019-03-17T05:41:36.386Z,98821.52
2019-03-17T05:44:40.899Z,98809.24
2019-03-17T05:47:44.383Z,98814.91
2019-03-17T05:50:47.871Z,98810.94
2019-03-17T05:53:51.357Z,98802.29
2019-03-17T05:56:54.885Z,98817.89
2019-03-17T05:59:58.345Z,98810.77
2019-03-17T06:03:01.792Z,98817.89
2019-03-17T06:06:05.361Z,98812.73
2019-03-17T06:09:08.806Z,98803.00
2019-03-17T06:12:12.318Z,98806.97
2019-03-17T06:15:15.907Z,98805.65
2019-03-17T06:18:19.379Z,98801.69
2019-03-17T06:21:22.874Z,98796.02
2019-03-17T06:24:26.394Z,98793.75
2019-03-17T06:27:29.864Z,98804.33
2019-03-17T06:30:33.328Z,98798.32
2019-03-17T06:33:36.757Z,98803.95
2019-03-17T06:36:40.375Z,98803.27
2019-03-17T06:39:43.964Z,98798.66
2019-03-17T06:42:47.592Z,98792.90
2019-03-17T06:45:51.176Z,98801.31
2019-03-17T06:48:55.803Z,98795.55
2019-03-17T06:51:59.236Z,98799.04
2019-03-17T06:55:02.719Z,98799.38
2019-03-17T06:58:06.221Z,98788.08
2019-03-17T07:01:09.770Z,98788.80
2019-03-17T07:04:13.330Z,98783.98
2019-03-17T07:07:16.877Z,98779.20
2019-03-17T07:10:20.304Z,98785.95
2019-03-17T07:13:24.835Z,98780.02
2019-03-17T07:16:28.451Z,98781.47
2019-03-17T07:19:31.872Z,98776.55
2019-03-17T07:22:35.340Z,98775.91
2019-03-17T07:25:40.888Z,98765.67
2019-03-17T07:28:44.404Z,98764.01
2019-03-17T07:31:47.883Z,98755.22
2019-03-17T07:34:51.386Z,98745.96
2019-03-17T07:37:56.946Z,98751.77
2019-03-17T07:41:01.049Z,98748.14
2019-03-17T07:44:04.590Z,98752.74
2019-03-17T07:47:08.033Z,98750.70
2019-03-17T07:50:11.642Z,98768.88
2019-03-17T07:53:16.114Z,98771.39
2019-03-17T07:56:19.591Z,98779.20
2019-03-17T07:59:23.069Z,98765.97
2019-03-17T08:02:26.695Z,98774.59
2019-03-17T08:05:30.278Z,98767.84
2019-03-17T08:08:33.831Z,98758.11
2019-03-17T08:11:37.306Z,98758.45
2019-03-17T08:14:42.996Z,98756.52
2019-03-17T08:17:46.475Z,98755.20
2019-03-17T08:20:49.982Z,98757.20
2019-03-17T08:23:53.437Z,98761.88
2019-03-17T08:26:57.164Z,98757.78
2019-03-17T08:30:00.666Z,98761.75
2019-03-17T08:33:04.097Z,98762.94
2019-03-17T08:36:08.573Z,98753.88
2019-03-17T08:39:12.187Z,98750.39
2019-03-17T08:42:15.807Z,98757.58
2019-03-17T08:45:19.301Z,98758.05
2019-03-17T08:48:22.754Z,98764.40
2019-03-17T08:51:27.217Z,98755.14
2019-03-17T08:54:30.813Z,98761.63
2019-03-17T08:57:34.282Z,98766.27
2019-03-17T09:00:38.817Z,98758.20
2019-03-17T09:03:42.347Z,98759.18
2019-03-17T09:06:45.847Z,98772.14
2019-03-17T09:09:49.294Z,98774.78
2019-03-17T09:12:52.752Z,98774.66
2019-03-17T09:15:56.171Z,98794.03
2019-03-17T09:18:59.669Z,98786.77
2019-03-17T09:22:03.092Z,98792.06
2019-03-17T09:25:07.553Z,98784.19
2019-03-17T09:28:11.056Z,98780.94
2019-03-17T09:31:14.618Z,98797.16
2019-03-17T09:34:18.094Z,98805.44
2019-03-17T09:37:21.657Z,98795.08
2019-03-17T09:40:26.086Z,98803.84
2019-03-17T09:43:29.532Z,98810.19
2019-03-17T09:46:32.989Z,98804.76
2019-03-17T09:49:36.474Z,98794.03
2019-03-17T09:52:40.009Z,98805.20
2019-03-17T09:55:43.529Z,98799.40
2019-03-17T09:58:47.009Z,98796.17
2019-03-17T10:01:50.509Z,98800.34
2019-03-17T10:04:53.984Z,98793.11
2019-03-17T10:07:57.497Z,98778.04
2019-03-17T10:11:01.004Z,98785.71
2019-03-17T10:14:04.529Z,98799.16
2019-03-17T10:17:09.024Z,98783.13
2019-03-17T10:20:14.633Z,98782.52
2019-03-17T10:23:18.074Z,98775.11
2019-03-17T10:26:21.516Z,98757.14
2019-03-17T10:29:25.066Z,98779.66
2019-03-17T10:32:28.613Z,98760.50
2019-03-17T10:35:32.081Z,98772.61
2019-03-17T10:38:35.557Z,98799.64
2019-03-17T10:41:39.076Z,98775.19
2019-03-17T10:44:42.531Z,98776.23
2019-03-17T10:47:45.983Z,98766.31
2019-03-17T10:50:50.092Z,98764.38
2019-03-17T10:53:53.653Z,98774.49
2019-03-17T10:56:57.104Z,98778.30
2019-03-17T11:00:00.612Z,98770.44
2019-03-17T11:03:05.121Z,98771.25
2019-03-17T11:06:08.637Z,98770.16
2019-03-17T11:09:24.411Z,98766.86
2019-03-17T11:12:17.215Z,98762.27
2019-03-17T11:15:20.672Z,98755.98
2019-03-17T11:18:24.220Z,98756.69
2019-03-17T11:21:27.769Z,98762.66
2019-03-17T11:24:31.195Z,98754.70
2019-03-17T11:27:34.660Z,98756.88
2019-03-17T11:30:38.183Z,98744.81
2019-03-17T11:33:41.613Z,98746.81
2019-03-17T11:36:45.164Z,98748.51
2019-03-17T11:39:48.693Z,98745.34
2019-03-17T11:42:52.173Z,98745.91
2019-03-17T11:45:55.679Z,98756.52
2019-03-17T11:48:59.209Z,98760.83
2019-03-17T11:52:02.634Z,98766.83
2019-03-17T11:55:07.231Z,98766.18
2019-03-17T11:58:10.736Z,98767.84
2019-03-17T12:01:14.217Z,98763.39
2019-03-17T12:04:17.986Z,98759.30
2019-03-17T12:07:21.540Z,98763.00
2019-03-17T12:10:24.991Z,98755.05
2019-03-17T12:13:28.441Z,98757.08
2019-03-17T12:16:32.955Z,98762.71
2019-03-17T12:19:36.452Z,98775.31
2019-03-17T12:22:40.989Z,98759.13
2019-03-17T12:25:44.493Z,98761.83
2019-03-17T12:28:47.982Z,98759.40
2019-03-17T12:31:51.575Z,98763.09
2019-03-17T12:34:55.211Z,98763.77
2019-03-17T12:37:59.698Z,98751.69
2019-03-17T12:41:03.280Z,98738.47
2019-03-17T12:44:07.049Z,98733.88
2019-03-17T12:47:13.407Z,98719.00
2019-03-17T12:50:19.049Z,98723.16
2019-03-17T12:53:23.641Z,98714.77
2019-03-17T12:56:27.276Z,98709.66
2019-03-17T12:59:30.791Z,98720.45
2019-03-17T13:02:34.259Z,98707.05
2019-03-17T13:05:37.895Z,98716.52
2019-03-17T13:08:41.488Z,98735.79
2019-03-17T13:11:44.972Z,98724.19
2019-03-17T13:14:48.417Z,98726.55
2019-03-17T13:17:53.051Z,98723.41
2019-03-17T13:20:56.705Z,98722.56
2019-03-17T13:24:00.234Z,98720.25
2019-03-17T13:27:03.811Z,98720.61
2019-03-17T13:30:09.779Z,98729.61
2019-03-17T13:33:13.460Z,98733.59
2019-03-17T13:36:17.102Z,98732.59
2019-03-17T13:39:20.648Z,98735.58
2019-03-17T13:42:24.318Z,98744.53
2019-03-17T13:45:27.791Z,98752.49
2019-03-17T13:48:31.323Z,98740.41
2019-03-17T13:51:35.811Z,98737.94
2019-03-17T13:54:39.525Z,98737.31
2019-03-17T13:57:43.311Z,98720.73
2019-03-17T14:00:47.057Z,98724.94
2019-03-17T14:03:54.977Z,98721.31
2019-03-17T14:06:59.769Z,98733.78
2019-03-17T14:10:13.389Z,98718.19
2019-03-17T14:13:08.722Z,98720.21
2019-03-17T14:16:12.199Z,98724.89
2019-03-17T14:19:15.644Z,98721.94
2019-03-17T14:22:20.227Z,98708.01
2019-03-17T14:25:24.914Z,98707.38
2019-03-17T14:28:28.455Z,98698.75
2019-03-17T14:31:32.006Z,98710.88
2019-03-17T14:34:35.527Z,98711.73
2019-03-17T14:37:39.217Z,98716.55
2019-03-17T14:40:52.760Z,98724.01
2019-03-17T14:43:47.834Z,98715.71
2019-03-17T14:46:51.321Z,98709.77
2019-03-17T14:49:54.823Z,98707.93
2019-03-17T14:53:00.671Z,98707.78
2019-03-17T14:56:03.517Z,98707.48
2019-03-17T14:59:06.962Z,98706.85
2019-03-17T15:02:10.472Z,98711.16
2019-03-17T15:05:15.017Z,98702.87
2019-03-17T15:08:18.488Z,98714.63
2019-03-17T15:11:23.392Z,98722.75
2019-03-17T15:14:26.826Z,98726.03
2019-03-17T15:17:30.399Z,98760.55
2019-03-17T15:20:33.845Z,98786.11
2019-03-17T15:23:37.353Z,98826.92
2019-03-17T15:26:40.904Z,98835.52
2019-03-17T15:29:44.482Z,98840.83
2019-03-17T15:32:47.939Z,98861.73
2019-03-17T15:35:51.439Z,98852.44
2019-03-17T15:38:54.868Z,98890.94
2019-03-17T15:41:59.569Z,98921.80
2019-03-17T15:45:03.025Z,98922.45
2019-03-17T15:48:06.533Z,98938.87
2019-03-17T15:51:19.451Z,98953.27
2019-03-17T15:54:15.294Z,98972.20
2019-03-17T15:57:18.845Z,99002.39
2019-03-17T16:00:26.799Z,99025.80
2019-03-17T16:03:28.275Z,99029.88
2019-03-17T16:06:31.794Z,99049.13
2019-03-17T16:09:35.275Z,99050.40
2019-03-17T16:12:38.780Z,99062.14
2019-03-17T16:15:42.264Z,99091.06
2019-03-17T16:18:45.762Z,99102.78
2019-03-17T16:21:49.268Z,99108.73
2019-03-17T16:24:52.761Z,99136.61
2019-03-17T16:27:56.265Z,99155.87
2019-03-17T16:31:00.895Z,99169.08
2019-03-17T16:34:04.499Z,99170.67
2019-03-17T16:37:08.037Z,99173.47
2019-03-17T16:40:13.428Z,99190.24
2019-03-17T16:43:17.070Z,99196.53
2019-03-17T16:46:20.566Z,99196.77
2019-03-17T16:49:26.299Z,99193.41
2019-03-17T16:52:29.835Z,99199.70
2019-03-17T16:55:34.358Z,99202.02
2019-03-17T16:58:37.865Z,99212.25
2019-03-17T17:01:41.372Z,99224.57
2019-03-17T17:04:45.847Z,99235.19
2019-03-17T17:07:55.110Z,99238.11
2019-03-17T17:11:00.552Z,99235.93
2019-03-17T17:14:03.892Z,99242.09
2019-03-17T17:17:07.462Z,99241.75
2019-03-17T17:20:13.503Z,99244.88
2019-03-17T17:23:17.062Z,99261.27
2019-03-17T17:26:20.602Z,99262.26
2019-03-17T17:29:24.037Z,99272.88
2019-03-17T17:32:27.537Z,99267.22
2019-03-17T17:35:31.027Z,99260.33
2019-03-17T17:38:34.664Z,99251.30
2019-03-17T17:41:40.172Z,99216.56
2019-03-17T17:44:43.683Z,99213.57
2019-03-17T17:47:47.248Z,99228.16
2019-03-17T17:50:51.017Z,99239.25
2019-03-17T17:53:54.605Z,99236.13
2019-03-17T17:56:59.109Z,99231.80
2019-03-17T18:00:02.612Z,99233.60
2019-03-17T18:03:06.113Z,99222.00
2019-03-17T18:06:09.658Z,99219.73
2019-03-17T18:09:14.142Z,99211.77
2019-03-17T18:12:21.266Z,99215.37
2019-03-17T18:15:22.986Z,99213.70
2019-03-17T18:18:27.530Z,99221.19
2019-03-17T18:21:31.078Z,99218.67
2019-03-17T18:24:34.698Z,99222.99
2019-03-17T18:27:38.324Z,99245.55
2019-03-17T18:30:41.941Z,99237.24
2019-03-17T18:33:45.435Z,99246.19
2019-03-17T18:36:48.946Z,99266.42
2019-03-17T18:39:54.465Z,99277.89
2019-03-17T18:42:58.070Z,99263.77
2019-03-17T18:46:01.662Z,99262.80
2019-03-17T18:49:05.194Z,99267.41
2019-03-17T18:52:08.703Z,99265.58
2019-03-17T18:55:13.835Z,99269.42
2019-03-17T18:58:17.226Z,99272.72
2019-03-17T19:01:22.864Z,99282.34
2019-03-17T19:04:26.389Z,99290.78
2019-03-17T19:07:29.898Z,99292.63
2019-03-17T19:10:34.390Z,99294.29
2019-03-17T19:13:38.907Z,99294.77
2019-03-17T19:16:42.414Z,99285.00
2019-03-17T19:19:45.913Z,99288.64
2019-03-17T19:22:49.472Z,99276.33
2019-03-17T19:25:53.971Z,99277.31
2019-03-17T19:28:57.548Z,99280.30
2019-03-17T19:32:01.257Z,99275.13
2019-03-17T19:35:04.911Z,99262.37
2019-03-17T19:38:08.774Z,99269.61
2019-03-17T19:41:12.358Z,99274.92
2019-03-17T19:44:16.033Z,99268.80
2019-03-17T19:47:19.582Z,99263.48
2019-03-17T19:50:23.242Z,99278.55
2019-03-17T19:53:27.704Z,99284.73
2019-03-17T19:56:31.221Z,99287.76
2019-03-17T19:59:34.819Z,99292.09
2019-03-17T20:02:38.526Z,99293.41
2019-03-17T20:05:42.241Z,99311.26
2019-03-17T20:08:45.815Z,99297.31
2019-03-17T20:11:49.357Z,99302.11
2019-03-17T20:14:52.843Z,99314.55
2019-03-17T20:17:56.370Z,99325.77
2019-03-17T20:20:59.909Z,99331.45
2019-03-17T20:24:03.539Z,99343.02
2019-03-17T20:27:07.050Z,99340.02
2019-03-17T20:30:11.361Z,99337.02
2019-03-17T20:33:16.938Z,99351.09
2019-03-17T20:36:20.505Z,99363.54
2019-03-17T20:39:25.196Z,99348.58
2019-03-17T20:42:28.841Z,99350.88
2019-03-17T20:45:32.452Z,99377.06
2019-03-17T20:48:37.995Z,99385.28
2019-03-17T20:51:41.586Z,99414.92
2019-03-17T20:54:45.099Z,99428.70
2019-03-17T20:57:48.631Z,99417.70
2019-03-17T21:00:52.109Z,99408.08
2019-03-17T21:03:55.727Z,99428.09
2019-03-17T21:06:59.226Z,99432.55
2019-03-17T21:10:02.748Z,99436.05
2019-03-17T21:13:06.261Z,99452.73
2019-03-17T21:16:09.713Z,99464.28
2019-03-17T21:19:13.320Z,99458.16
2019-03-17T21:22:16.804Z,99459.95
2019-03-17T21:25:20.433Z,99470.22
2019-03-17T21:28:24.030Z,99471.16
2019-03-17T21:31:28.553Z,99490.36
2019-03-17T21:34:32.055Z,99486.62
2019-03-17T21:37:35.922Z,99479.88
2019-03-17T21:40:53.059Z,99481.33
2019-03-17T21:43:44.548Z,99473.02
2019-03-17T21:46:48.078Z,99473.62
2019-03-17T21:49:51.515Z,99476.27
2019-03-17T21:52:54.996Z,99477.72
2019-03-17T21:55:58.616Z,99481.35
2019-03-17T21:59:02.118Z,99484.13
2019-03-17T22:02:12.731Z,99481.13
2019-03-17T22:05:12.164Z,99480.75
2019-03-17T22:08:16.732Z,99488.36
2019-03-17T22:11:20.207Z,99495.55
2019-03-17T22:14:23.685Z,99516.66
2019-03-17T22:17:27.196Z,99501.83
2019-03-17T22:20:31.782Z,99497.50
2019-03-17T22:23:35.281Z,99501.12
2019-03-17T22:26:38.725Z,99509.90
2019-03-17T22:29:42.324Z,99499.42
2019-03-17T22:32:45.951Z,99502.20
2019-03-17T22:35:49.452Z,99512.92
2019-03-17T22:38:52.951Z,99513.77
2019-03-17T22:42:02.304Z,99519.55
2019-03-17T22:45:06.383Z,99519.55
2019-03-17T22:48:09.997Z,99527.16
2019-03-17T22:51:13.434Z,99532.45
2019-03-17T22:54:17.003Z,99532.11
2019-03-17T22:57:20.501Z,99538.97
2019-03-17T23:00:32.399Z,99546.93
2019-03-17T23:03:35.871Z,99547.40
2019-03-17T23:06:41.305Z,99530.29
2019-03-17T23:09:45.014Z,99534.65
2019-03-17T23:12:48.467Z,99547.17
2019-03-17T23:15:52.990Z,99564.41
2019-03-17T23:18:56.442Z,99558.75
2019-03-17T23:22:01.012Z,99569.00
2019-03-17T23:25:04.550Z,99569.47
2019-03-17T23:28:08.196Z,99569.95
2019-03-17T23:31:12.725Z,99577.55
2019-03-17T23:34:16.337Z,99577.55
2019-03-17T23:37:19.931Z,99582.11
2019-03-17T23:40:23.396Z,99588.73
2019-03-17T23:43:26.873Z,99582.11
2019-03-17T23:46:30.365Z,99577.78
2019-03-17T23:49:33.810Z,99584.06
2019-03-17T23:52:37.430Z,99583.70
2019-03-17T23:55:40.958Z,99596.96
2019-03-17T23:58:45.447Z,99603.59
